createdAt,value
2023-01-04T00:00:16.423Z,101590.59
2023-01-04T00:02:47.445Z,101591.20
2023-01-04T00:05:18.309Z,101587.05
2023-01-04T00:07:49.064Z,101587.82
2023-01-04T00:10:19.466Z,101586.63
2023-01-04T00:12:50.504Z,101591.35
2023-01-04T00:15:21.613Z,101580.55
2023-01-04T00:17:51.971Z,101583.09
2023-01-04T00:20:22.606Z,101580.64
2023-01-04T00:22:53.275Z,101577.52
2023-01-04T00:25:24.476Z,101575.16
2023-01-04T00:27:55.639Z,101573.56
2023-01-04T00:30:26.065Z,101570.30
2023-01-04T00:32:57.839Z,101566.27
2023-01-04T00:35:45.263Z,101569.84
2023-01-04T00:38:16.634Z,101572.56
2023-01-04T00:40:47.290Z,101559.35
2023-01-04T00:43:17.655Z,101550.09
2023-01-04T00:45:48.092Z,101537.73
2023-01-04T00:48:19.018Z,101528.34
2023-01-04T00:50:50.239Z,101524.92
2023-01-04T00:53:20.723Z,101517.36
2023-01-04T00:55:51.264Z,101516.35
2023-01-04T00:58:21.664Z,101513.11
2023-01-04T01:00:52.562Z,101506.05
2023-01-04T01:03:23.404Z,101511.44
2023-01-04T01:05:53.864Z,101502.96
2023-01-04T01:08:26.940Z,101495.95
2023-01-04T01:11:03.222Z,101490.39
2023-01-04T01:13:33.703Z,101481.48
2023-01-04T01:16:08.428Z,101478.95
2023-01-04T01:18:40.385Z,101467.09
2023-01-04T01:21:13.068Z,101460.81
2023-01-04T01:23:44.798Z,101457.61
2023-01-04T01:26:22.024Z,101453.11
2023-01-04T01:28:52.518Z,101450.15
2023-01-04T01:31:25.167Z,101446.07
2023-01-04T01:33:57.987Z,101447.28
2023-01-04T01:36:29.168Z,101445.83
2023-01-04T01:38:59.989Z,101437.46
2023-01-04T01:41:32.897Z,101434.05
2023-01-04T01:44:05.265Z,101434.44
2023-01-04T01:46:40.519Z,101426.20
2023-01-04T01:49:15.836Z,101421.51
2023-01-04T01:51:46.624Z,101424.08
2023-01-04T01:54:21.664Z,101421.34
2023-01-04T01:56:54.295Z,101422.25
2023-01-04T01:59:26.034Z,101413.14
2023-01-04T02:01:56.898Z,101413.77
2023-01-04T02:04:28.333Z,101409.27
2023-01-04T02:07:02.240Z,101400.25
2023-01-04T02:09:34.323Z,101390.99
2023-01-04T02:12:04.911Z,101388.41
2023-01-04T02:14:36.138Z,101375.39
2023-01-04T02:17:15.127Z,101371.21
2023-01-04T02:20:16.336Z,101363.44
2023-01-04T02:23:09.750Z,101350.17
2023-01-04T02:26:22.741Z,101348.27
2023-01-04T02:29:19.484Z,101337.89
2023-01-04T02:31:55.191Z,101323.88
2023-01-04T02:34:35.146Z,101308.23
2023-01-04T02:37:18.651Z,101298.33
2023-01-04T02:40:04.931Z,101294.87
2023-01-04T02:43:01.672Z,101285.91
2023-01-04T02:45:37.679Z,101284.98
2023-01-04T02:48:27.229Z,101275.32
2023-01-04T02:50:59.182Z,101265.03
2023-01-04T02:53:32.843Z,101262.60
2023-01-04T02:56:16.532Z,101254.19
2023-01-04T02:59:03.938Z,101249.14
2023-01-04T03:02:02.403Z,101244.91
2023-01-04T03:05:07.477Z,101234.46
2023-01-04T03:07:48.618Z,101225.52
2023-01-04T03:10:33.780Z,101219.58
2023-01-04T03:13:12.211Z,101215.98
2023-01-04T03:15:47.221Z,101216.54
2023-01-04T03:18:23.010Z,101213.17
2023-01-04T03:20:57.097Z,101208.30
2023-01-04T03:23:49.636Z,101196.61
2023-01-04T03:26:43.134Z,101191.50
2023-01-04T03:29:36.021Z,101182.70
2023-01-04T03:32:29.888Z,101178.48
2023-01-04T03:35:19.093Z,101169.11
2023-01-04T03:38:14.865Z,101166.63
2023-01-04T03:41:09.942Z,101150.18
2023-01-04T03:44:04.406Z,101145.29
2023-01-04T03:47:01.370Z,101139.85
2023-01-04T03:49:37.744Z,101135.23
2023-01-04T03:52:11.357Z,101136.96
2023-01-04T03:54:44.945Z,101132.25
2023-01-04T03:57:16.546Z,101129.34
2023-01-04T03:59:50.935Z,101116.00
2023-01-04T04:02:25.939Z,101100.46
2023-01-04T04:05:14.320Z,101094.34
2023-01-04T04:08:02.802Z,101089.48
2023-01-04T04:10:33.538Z,101081.08
2023-01-04T04:13:03.849Z,101077.33
2023-01-04T04:15:34.199Z,101073.02
2023-01-04T04:18:05.092Z,101071.27
2023-01-04T04:20:36.130Z,101065.58
2023-01-04T04:23:06.490Z,101060.58
2023-01-04T04:25:37.440Z,101054.14
2023-01-04T04:28:07.896Z,101053.90
2023-01-04T04:30:40.711Z,101045.28
2023-01-04T04:33:11.416Z,101037.31
2023-01-04T04:35:43.087Z,101032.05
2023-01-04T04:38:13.706Z,101026.31
2023-01-04T04:41:01.493Z,101021.83
2023-01-04T04:43:30.300Z,101015.89
2023-01-04T04:46:00.761Z,101008.91
2023-01-04T04:48:31.928Z,101006.05
2023-01-04T04:51:02.287Z,101000.09
2023-01-04T04:53:32.883Z,101000.54
2023-01-04T04:56:03.609Z,100989.39
2023-01-04T04:58:34.019Z,100983.55
2023-01-04T05:01:04.709Z,100979.79
2023-01-04T05:03:35.885Z,100976.48
2023-01-04T05:06:06.879Z,100968.18
2023-01-04T05:08:37.272Z,100965.05
2023-01-04T05:11:10.170Z,100956.23
2023-01-04T05:13:41.201Z,100959.50
2023-01-04T05:16:12.160Z,100956.52
2023-01-04T05:18:42.486Z,100951.61
2023-01-04T05:21:16.972Z,100947.21
2023-01-04T05:23:50.896Z,100941.78
2023-01-04T05:26:21.513Z,100933.15
2023-01-04T05:28:54.159Z,100929.18
2023-01-04T05:31:25.411Z,100916.13
2023-01-04T05:33:55.801Z,100918.64
2023-01-04T05:36:26.177Z,100909.61
2023-01-04T05:38:56.552Z,100897.05
2023-01-04T05:41:44.385Z,100894.13
2023-01-04T05:44:13.310Z,100879.38
2023-01-04T05:46:43.605Z,100865.99
2023-01-04T05:49:13.924Z,100862.85
2023-01-04T05:51:44.251Z,100858.67
2023-01-04T05:54:20.870Z,100847.29
2023-01-04T05:56:52.128Z,100846.09
2023-01-04T05:59:22.493Z,100841.80
2023-01-04T06:01:53.022Z,100839.69
2023-01-04T06:04:23.458Z,100832.69
2023-01-04T06:06:53.912Z,100821.96
2023-01-04T06:09:26.703Z,100808.09
2023-01-04T06:11:57.682Z,100800.54
2023-01-04T06:14:28.075Z,100785.52
2023-01-04T06:16:59.208Z,100781.83
2023-01-04T06:19:30.094Z,100780.75
2023-01-04T06:22:00.763Z,100786.63
2023-01-04T06:24:31.461Z,100782.91
2023-01-04T06:27:01.848Z,100774.51
2023-01-04T06:29:32.253Z,100778.45
2023-01-04T06:32:02.845Z,100775.36
2023-01-04T06:34:33.184Z,100768.46
2023-01-04T06:37:03.606Z,100764.20
2023-01-04T06:39:34.315Z,100755.29
2023-01-04T06:42:06.921Z,100753.66
2023-01-04T06:44:37.789Z,100753.41
2023-01-04T06:47:08.377Z,100744.45
2023-01-04T06:49:38.987Z,100738.76
2023-01-04T06:52:09.700Z,100734.59
2023-01-04T06:54:40.103Z,100721.56
2023-01-04T06:57:10.461Z,100710.91
2023-01-04T06:59:40.829Z,100707.54
2023-01-04T07:02:14.682Z,100709.58
2023-01-04T07:04:45.626Z,100703.65
2023-01-04T07:07:16.710Z,100702.20
2023-01-04T07:09:47.071Z,100697.52
2023-01-04T07:12:17.366Z,100693.67
2023-01-04T07:14:47.692Z,100679.30
2023-01-04T07:17:18.057Z,100689.83
2023-01-04T07:19:48.447Z,100687.80
2023-01-04T07:22:19.157Z,100684.95
2023-01-04T07:24:49.766Z,100692.52
2023-01-04T07:27:20.525Z,100690.50
2023-01-04T07:29:51.167Z,100698.69
2023-01-04T07:32:21.780Z,100693.25
2023-01-04T07:34:52.400Z,100691.77
2023-01-04T07:37:23.369Z,100681.42
2023-01-04T07:39:53.692Z,100687.73
2023-01-04T07:42:24.052Z,100685.36
2023-01-04T07:44:54.342Z,100681.50
2023-01-04T07:47:24.726Z,100686.95
2023-01-04T07:49:55.390Z,100689.15
2023-01-04T07:52:26.105Z,100688.52
2023-01-04T07:54:56.527Z,100690.73
2023-01-04T07:57:26.898Z,100683.98
2023-01-04T07:59:57.189Z,100684.38
2023-01-04T08:02:27.644Z,100686.62
2023-01-04T08:04:59.638Z,100682.48
2023-01-04T08:07:30.385Z,100688.20
2023-01-04T08:10:01.681Z,100685.01
2023-01-04T08:12:32.321Z,100685.35
2023-01-04T08:15:02.672Z,100685.18
2023-01-04T08:17:32.985Z,100682.37
2023-01-04T08:20:03.740Z,100690.06
2023-01-04T08:22:34.480Z,100692.27
2023-01-04T08:25:06.972Z,100690.23
2023-01-04T08:27:37.608Z,100696.49
2023-01-04T08:30:10.173Z,100695.39
2023-01-04T08:32:41.715Z,100696.63
2023-01-04T08:35:12.305Z,100697.27
2023-01-04T08:37:43.581Z,100696.38
2023-01-04T08:40:15.076Z,100692.67
2023-01-04T08:42:46.185Z,100688.30
2023-01-04T08:45:17.351Z,100689.00
2023-01-04T08:47:48.540Z,100688.21
2023-01-04T08:50:20.488Z,100690.13
2023-01-04T08:52:50.840Z,100688.85
2023-01-04T08:55:23.487Z,100685.86
2023-01-04T08:57:54.544Z,100689.98
2023-01-04T09:00:25.126Z,100688.60
2023-01-04T09:02:56.614Z,100685.52
2023-01-04T09:05:28.809Z,100681.41
2023-01-04T09:08:00.391Z,100674.67
2023-01-04T09:10:31.047Z,100673.93
2023-01-04T09:13:01.621Z,100670.17
2023-01-04T09:15:32.225Z,100661.34
2023-01-04T09:18:31.919Z,100666.91
2023-01-04T09:20:55.718Z,100661.39
2023-01-04T09:23:28.659Z,100664.73
2023-01-04T09:26:02.181Z,100665.08
2023-01-04T09:28:36.026Z,100660.16
2023-01-04T09:31:10.098Z,100652.17
2023-01-04T09:34:12.637Z,100648.82
2023-01-04T09:36:32.184Z,100651.95
2023-01-04T09:39:02.535Z,100652.00
2023-01-04T09:41:36.067Z,100649.13
2023-01-04T09:44:17.998Z,100645.16
2023-01-04T09:46:52.849Z,100638.48
2023-01-04T09:49:28.580Z,100638.12
2023-01-04T09:52:04.809Z,100640.60
2023-01-04T09:54:46.659Z,100633.77
2023-01-04T09:57:23.911Z,100636.04
2023-01-04T09:59:58.870Z,100623.16
2023-01-04T10:02:39.759Z,100619.38
2023-01-04T10:05:18.971Z,100615.43
2023-01-04T10:07:49.876Z,100612.43
2023-01-04T10:10:22.572Z,100604.88
2023-01-04T10:13:03.145Z,100599.69
2023-01-04T10:15:41.595Z,100599.04
2023-01-04T10:19:50.536Z,100584.05
2023-01-04T10:21:34.411Z,100587.59
2023-01-04T10:24:18.755Z,100581.78
2023-01-04T10:26:50.751Z,100569.45
2023-01-04T10:29:37.174Z,100566.61
2023-01-04T10:32:17.127Z,100557.66
2023-01-04T10:34:48.995Z,100558.48
2023-01-04T10:37:23.176Z,100557.66
2023-01-04T10:39:56.069Z,100556.88
2023-01-04T10:42:34.882Z,100547.96
2023-01-04T10:45:17.377Z,100545.20
2023-01-04T10:47:57.652Z,100539.48
2023-01-04T10:50:40.316Z,100536.35
2023-01-04T10:53:16.736Z,100536.17
2023-01-04T10:56:23.877Z,100540.55
2023-01-04T10:58:54.595Z,100538.41
2023-01-04T11:01:30.300Z,100530.96
2023-01-04T11:04:11.039Z,100526.65
2023-01-04T11:06:49.014Z,100527.40
2023-01-04T11:09:25.390Z,100524.17
2023-01-04T11:11:58.854Z,100525.77
2023-01-04T11:14:36.871Z,100525.48
2023-01-04T11:17:11.789Z,100532.45
2023-01-04T11:19:44.581Z,100526.20
2023-01-04T11:22:22.397Z,100521.66
2023-01-04T11:25:34.388Z,100519.02
2023-01-04T11:27:49.315Z,100514.44
2023-01-04T11:30:23.652Z,100513.25
2023-01-04T11:33:01.478Z,100510.15
2023-01-04T11:35:42.723Z,100503.42
2023-01-04T11:38:17.252Z,100496.25
2023-01-04T11:41:00.223Z,100494.67
2023-01-04T11:43:32.017Z,100493.05
2023-01-04T11:46:05.477Z,100491.35
2023-01-04T11:48:42.601Z,100484.56
2023-01-04T11:51:34.094Z,100480.49
2023-01-04T11:54:06.932Z,100476.84
2023-01-04T11:56:38.226Z,100469.92
2023-01-04T11:59:20.971Z,100472.96
2023-01-04T12:02:42.743Z,100477.11
2023-01-04T12:05:28.248Z,100466.76
2023-01-04T12:08:00.191Z,100463.65
2023-01-04T12:10:31.198Z,100468.14
2023-01-04T12:13:03.338Z,100461.72
2023-01-04T12:15:40.538Z,100465.29
2023-01-04T12:18:17.796Z,100460.20
2023-01-04T12:20:49.106Z,100444.80
2023-01-04T12:23:20.414Z,100436.66
2023-01-04T12:25:53.533Z,100441.73
2023-01-04T12:28:36.417Z,100443.91
2023-01-04T12:31:36.770Z,100435.14
2023-01-04T12:34:43.821Z,100436.52
2023-01-04T12:37:50.456Z,100426.29
2023-01-04T12:40:57.157Z,100423.02
2023-01-04T12:43:41.628Z,100413.20
2023-01-04T12:47:01.845Z,100415.23
2023-01-04T12:49:59.915Z,100411.11
2023-01-04T12:53:10.059Z,100400.41
2023-01-04T12:56:01.680Z,100393.38
2023-01-04T12:59:25.188Z,100389.69
2023-01-04T13:02:22.270Z,100392.08
2023-01-04T13:05:16.846Z,100386.89
2023-01-04T13:07:47.865Z,100382.19
2023-01-04T13:10:34.904Z,100387.98
2023-01-04T13:13:27.683Z,100391.55
2023-01-04T13:16:08.092Z,100384.38
2023-01-04T13:18:41.477Z,100375.39
2023-01-04T13:21:17.918Z,100372.66
2023-01-04T13:23:54.602Z,100367.55
2023-01-04T13:26:42.859Z,100365.61
2023-01-04T13:29:19.303Z,100367.34
2023-01-04T13:31:54.631Z,100360.88
2023-01-04T13:34:34.349Z,100359.99
2023-01-04T13:37:14.953Z,100354.83
2023-01-04T13:39:47.466Z,100350.90
2023-01-04T13:42:25.570Z,100350.51
2023-01-04T13:45:21.812Z,100352.03
2023-01-04T13:47:59.709Z,100350.27
2023-01-04T13:50:40.007Z,100342.38
2023-01-04T13:53:22.418Z,100340.39
2023-01-04T13:55:57.080Z,100332.84
2023-01-04T13:58:29.142Z,100331.07
2023-01-04T14:01:02.396Z,100326.06
2023-01-04T14:03:36.476Z,100325.20
2023-01-04T14:06:21.134Z,100326.76
2023-01-04T14:08:59.327Z,100324.48
2023-01-04T14:11:50.815Z,100317.05
2023-01-04T14:14:35.700Z,100315.80
2023-01-04T14:17:18.090Z,100320.11
2023-01-04T14:19:51.742Z,100311.83
2023-01-04T14:22:27.752Z,100312.55
2023-01-04T14:25:15.305Z,100303.77
2023-01-04T14:27:45.663Z,100298.23
2023-01-04T14:30:26.966Z,100300.19
2023-01-04T14:32:59.928Z,100298.88
2023-01-04T14:35:31.685Z,100299.17
2023-01-04T14:38:12.293Z,100294.89
2023-01-04T14:40:43.951Z,100297.58
2023-01-04T14:43:47.941Z,100301.55
2023-01-04T14:46:18.652Z,100292.91
2023-01-04T14:48:49.315Z,100282.44
2023-01-04T14:51:22.653Z,100287.56
2023-01-04T14:53:54.838Z,100291.98
2023-01-04T14:56:25.191Z,100285.17
2023-01-04T14:58:55.516Z,100284.27
2023-01-04T15:01:25.913Z,100283.34
2023-01-04T15:03:56.820Z,100281.75
2023-01-04T15:06:27.603Z,100274.00
2023-01-04T15:08:58.311Z,100271.36
2023-01-04T15:11:29.890Z,100268.91
2023-01-04T15:14:00.223Z,100270.68
2023-01-04T15:16:30.652Z,100279.09
2023-01-04T15:19:01.096Z,100278.63
2023-01-04T15:21:34.106Z,100284.30
2023-01-04T15:24:10.018Z,100292.02
2023-01-04T15:26:40.629Z,100294.21
2023-01-04T15:29:11.230Z,100298.00
2023-01-04T15:31:43.666Z,100293.33
2023-01-04T15:34:17.187Z,100287.41
2023-01-04T15:36:47.564Z,100289.26
2023-01-04T15:39:18.051Z,100281.77
2023-01-04T15:42:06.197Z,100281.52
2023-01-04T15:44:37.104Z,100271.75
2023-01-04T15:47:07.548Z,100275.83
2023-01-04T15:49:38.337Z,100266.52
2023-01-04T15:52:09.234Z,100248.10
2023-01-04T15:54:40.077Z,100246.63
2023-01-04T15:57:10.456Z,100238.80
2023-01-04T15:59:41.676Z,100231.95
2023-01-04T16:02:13.152Z,100231.44
2023-01-04T16:04:45.809Z,100240.40
2023-01-04T16:07:16.128Z,100253.55
2023-01-04T16:09:46.757Z,100259.60
2023-01-04T16:12:34.708Z,100257.82
2023-01-04T16:15:05.737Z,100259.88
2023-01-04T16:17:36.591Z,100266.13
2023-01-04T16:20:08.333Z,100268.10
2023-01-04T16:22:39.000Z,100265.32
2023-01-04T16:25:14.067Z,100262.59
2023-01-04T16:27:44.843Z,100258.60
2023-01-04T16:30:16.690Z,100264.52
2023-01-04T16:32:47.315Z,100255.69
2023-01-04T16:35:18.163Z,100254.45
2023-01-04T16:37:48.497Z,100255.99
2023-01-04T16:40:19.098Z,100257.30
2023-01-04T16:42:51.267Z,100256.02
2023-01-04T16:45:21.699Z,100251.35
2023-01-04T16:47:53.712Z,100245.54
2023-01-04T16:50:24.036Z,100243.60
2023-01-04T16:52:54.619Z,100242.04
2023-01-04T16:55:24.989Z,100236.67
2023-01-04T16:57:55.834Z,100247.77
2023-01-04T17:00:26.926Z,100237.87
2023-01-04T17:02:57.700Z,100225.41
2023-01-04T17:05:28.562Z,100224.77
2023-01-04T17:07:58.931Z,100221.98
2023-01-04T17:10:29.785Z,100227.02
2023-01-04T17:13:01.535Z,100220.48
2023-01-04T17:15:47.086Z,100216.60
2023-01-04T17:18:22.493Z,100213.52
2023-01-04T17:21:16.801Z,100212.00
2023-01-04T17:23:50.163Z,100210.89
2023-01-04T17:26:23.024Z,100205.10
2023-01-04T17:28:54.752Z,100204.93
2023-01-04T17:31:27.408Z,100203.03
2023-01-04T17:33:58.698Z,100202.44
2023-01-04T17:36:30.093Z,100203.14
2023-01-04T17:39:02.460Z,100200.98
2023-01-04T17:41:33.786Z,100198.52
2023-01-04T17:44:06.149Z,100201.89
2023-01-04T17:46:38.095Z,100197.59
2023-01-04T17:49:22.124Z,100196.44
2023-01-04T17:51:54.431Z,100201.78
2023-01-04T17:54:25.507Z,100198.60
2023-01-04T17:56:55.933Z,100194.55
2023-01-04T17:59:26.411Z,100198.95
2023-01-04T18:01:56.935Z,100199.58
2023-01-04T18:04:27.767Z,100191.00
2023-01-04T18:06:58.900Z,100190.98
2023-01-04T18:09:29.692Z,100199.64
2023-01-04T18:12:00.035Z,100200.48
2023-01-04T18:14:30.759Z,100199.08
2023-01-04T18:17:01.466Z,100193.08
2023-01-04T18:19:33.150Z,100182.72
2023-01-04T18:22:04.779Z,100189.44
2023-01-04T18:24:37.281Z,100188.75
2023-01-04T18:27:26.009Z,100194.65
2023-01-04T18:29:57.735Z,100202.22
2023-01-04T18:32:28.774Z,100199.09
2023-01-04T18:35:04.324Z,100201.64
2023-01-04T18:37:35.655Z,100201.67
2023-01-04T18:40:07.455Z,100208.13
2023-01-04T18:42:38.193Z,100205.11
2023-01-04T18:45:10.253Z,100194.55
2023-01-04T18:47:41.036Z,100196.65
2023-01-04T18:50:12.274Z,100190.22
2023-01-04T18:52:42.896Z,100191.23
2023-01-04T18:55:15.396Z,100196.85
2023-01-04T18:57:45.788Z,100195.02
2023-01-04T19:00:18.204Z,100195.59
2023-01-04T19:02:49.109Z,100193.30
2023-01-04T19:05:20.038Z,100176.77
2023-01-04T19:07:51.470Z,100181.96
2023-01-04T19:10:21.901Z,100178.30
2023-01-04T19:12:52.241Z,100168.40
2023-01-04T19:15:23.966Z,100168.52
2023-01-04T19:17:54.287Z,100163.55
2023-01-04T19:20:24.885Z,100167.80
2023-01-04T19:22:55.146Z,100160.49
2023-01-04T19:25:28.464Z,100161.94
2023-01-04T19:27:59.155Z,100163.96
2023-01-04T19:30:29.697Z,100167.42
2023-01-04T19:33:00.100Z,100165.52
2023-01-04T19:35:30.554Z,100167.88
2023-01-04T19:38:01.463Z,100155.05
2023-01-04T19:40:32.400Z,100153.66
2023-01-04T19:43:03.231Z,100156.15
2023-01-04T19:45:37.322Z,100158.35
2023-01-04T19:48:08.279Z,100162.06
2023-01-04T19:50:38.636Z,100167.04
2023-01-04T19:53:09.513Z,100161.86
2023-01-04T19:55:42.066Z,100163.89
2023-01-04T19:58:14.848Z,100166.25
2023-01-04T20:00:59.196Z,100156.64
2023-01-04T20:03:29.669Z,100162.48
2023-01-04T20:06:04.372Z,100160.56
2023-01-04T20:08:35.881Z,100156.52
2023-01-04T20:11:06.967Z,100145.98
2023-01-04T20:13:38.719Z,100149.95
2023-01-04T20:16:10.701Z,100143.53
2023-01-04T20:18:41.234Z,100151.05
2023-01-04T20:21:14.718Z,100157.52
2023-01-04T20:23:45.032Z,100169.71
2023-01-04T20:26:18.292Z,100171.68
2023-01-04T20:28:48.794Z,100168.23
2023-01-04T20:31:20.784Z,100166.23
2023-01-04T20:33:51.181Z,100165.23
2023-01-04T20:36:23.600Z,100166.88
2023-01-04T20:38:54.969Z,100158.66
2023-01-04T20:41:28.985Z,100151.02
2023-01-04T20:43:59.504Z,100158.84
2023-01-04T20:46:32.979Z,100154.98
2023-01-04T20:49:04.132Z,100160.27
2023-01-04T20:51:34.481Z,100158.36
2023-01-04T20:54:05.256Z,100148.47
2023-01-04T20:56:37.597Z,100151.39
2023-01-04T20:59:09.125Z,100150.25
2023-01-04T21:01:40.285Z,100146.08
2023-01-04T21:04:10.773Z,100156.33
2023-01-04T21:06:41.772Z,100151.75
2023-01-04T21:09:12.453Z,100161.52
2023-01-04T21:11:43.003Z,100163.24
2023-01-04T21:14:13.670Z,100169.48
2023-01-04T21:16:44.032Z,100169.17
2023-01-04T21:19:15.137Z,100162.34
2023-01-04T21:21:45.460Z,100156.94
2023-01-04T21:24:16.374Z,100156.05
2023-01-04T21:26:47.044Z,100166.04
2023-01-04T21:29:17.660Z,100176.89
2023-01-04T21:31:47.992Z,100181.33
2023-01-04T21:34:22.902Z,100186.38
2023-01-04T21:36:53.939Z,100180.00
2023-01-04T21:39:24.578Z,100182.08
2023-01-04T21:41:56.730Z,100180.64
2023-01-04T21:44:27.607Z,100189.93
2023-01-04T21:46:58.656Z,100192.58
2023-01-04T21:49:28.959Z,100192.80
2023-01-04T21:51:59.284Z,100197.75
2023-01-04T21:54:29.796Z,100199.79
2023-01-04T21:57:00.205Z,100203.33
2023-01-04T21:59:31.074Z,100213.59
2023-01-04T22:02:01.489Z,100204.79
2023-01-04T22:04:33.379Z,100208.50
2023-01-04T22:07:03.877Z,100211.95
2023-01-04T22:09:34.502Z,100213.11
2023-01-04T22:12:05.382Z,100217.34
2023-01-04T22:14:36.292Z,100216.39
2023-01-04T22:17:06.631Z,100224.63
2023-01-04T22:19:37.116Z,100219.64
2023-01-04T22:22:07.578Z,100220.95
2023-01-04T22:24:38.500Z,100216.77
2023-01-04T22:27:08.950Z,100207.48
2023-01-04T22:29:39.868Z,100205.95
2023-01-04T22:32:11.118Z,100211.99
2023-01-04T22:34:41.457Z,100214.69
2023-01-04T22:37:11.795Z,100215.98
2023-01-04T22:39:42.103Z,100210.61
2023-01-04T22:42:12.416Z,100210.41
2023-01-04T22:44:43.120Z,100209.70
2023-01-04T22:47:13.979Z,100210.63
2023-01-04T22:49:44.403Z,100208.02
2023-01-04T22:52:14.803Z,100208.85
2023-01-04T22:54:45.535Z,100207.13
2023-01-04T22:57:16.037Z,100212.92
2023-01-04T22:59:46.428Z,100216.28
2023-01-04T23:02:17.327Z,100216.24
2023-01-04T23:04:48.007Z,100216.52
2023-01-04T23:07:18.616Z,100217.82
2023-01-04T23:09:49.023Z,100219.00
2023-01-04T23:12:19.371Z,100217.81
2023-01-04T23:14:49.989Z,100217.42
2023-01-04T23:17:20.324Z,100229.27
2023-01-04T23:19:50.740Z,100246.27
2023-01-04T23:22:21.196Z,100252.48
2023-01-04T23:24:52.463Z,100251.57
2023-01-04T23:27:23.020Z,100251.40
2023-01-04T23:29:53.399Z,100252.64
2023-01-04T23:32:24.015Z,100244.66
2023-01-04T23:34:54.348Z,100244.09
2023-01-04T23:37:25.123Z,100242.27
2023-01-04T23:39:55.425Z,100238.41
2023-01-04T23:42:26.169Z,100238.83
2023-01-04T23:44:56.825Z,100238.38
2023-01-04T23:47:27.675Z,100233.45
2023-01-04T23:49:58.416Z,100230.72
2023-01-04T23:52:29.157Z,100238.41
2023-01-04T23:54:59.499Z,100241.52
2023-01-04T23:57:30.385Z,100246.73
